createdAt,value
2019-01-23T00:01:44.918Z,62.73
2019-01-23T00:04:15.185Z,56.83
2019-01-23T00:06:45.436Z,55.50
2019-01-23T00:09:15.739Z,61.60
2019-01-23T00:11:46.006Z,55.25
2019-01-23T00:14:16.255Z,59.58
2019-01-23T00:16:46.543Z,67.17
2019-01-23T00:19:16.847Z,64.82
2019-01-23T00:21:47.118Z,53.85
2019-01-23T00:24:17.387Z,63.70
2019-01-23T00:26:47.705Z,62.43
2019-01-23T00:29:18.055Z,64.35
2019-01-23T00:31:48.376Z,51.20
2019-01-23T00:34:18.677Z,63.20
2019-01-23T00:36:48.927Z,66.97
2019-01-23T00:39:19.206Z,59.30
2019-01-23T00:41:50.932Z,63.78
2019-01-23T00:44:21.211Z,51.15
2019-01-23T00:46:51.492Z,53.27
2019-01-23T00:49:21.766Z,56.45
2019-01-23T00:51:52.056Z,54.38
2019-01-23T00:54:22.594Z,54.83
2019-01-23T00:56:52.888Z,53.15
2019-01-23T00:59:23.149Z,57.78
2019-01-23T01:01:53.571Z,59.23
2019-01-23T01:04:23.817Z,52.20
2019-01-23T01:06:54.152Z,64.97
2019-01-23T01:09:24.680Z,46.18
2019-01-23T01:11:54.926Z,51.98
2019-01-23T01:14:25.175Z,53.02
2019-01-23T01:16:55.446Z,47.57
2019-01-23T01:19:25.703Z,49.48
2019-01-23T01:21:55.984Z,43.78
2019-01-23T01:24:26.250Z,51.85
2019-01-23T01:26:56.528Z,44.67
2019-01-23T01:29:26.790Z,51.83
2019-01-23T01:31:57.046Z,48.00
2019-01-23T01:34:27.313Z,50.15
2019-01-23T01:36:57.566Z,43.35
2019-01-23T01:39:27.807Z,52.75
2019-01-23T01:41:58.096Z,53.65
2019-01-23T01:44:28.386Z,55.85
2019-01-23T01:46:58.713Z,58.07
2019-01-23T01:49:29.028Z,51.50
2019-01-23T01:51:59.284Z,52.27
2019-01-23T01:54:29.573Z,48.45
2019-01-23T01:56:59.894Z,51.33
2019-01-23T01:59:30.172Z,48.85
2019-01-23T02:02:00.454Z,49.20
2019-01-23T02:04:31.817Z,49.58
2019-01-23T02:07:02.123Z,55.40
2019-01-23T02:09:35.509Z,51.55
2019-01-23T02:12:04.615Z,53.87
2019-01-23T02:14:35.977Z,42.35
2019-01-23T02:17:06.219Z,46.83
2019-01-23T02:19:36.480Z,41.60
2019-01-23T02:22:06.734Z,43.78
2019-01-23T02:24:37.031Z,38.40
2019-01-23T02:27:07.250Z,52.43
2019-01-23T02:29:37.530Z,48.42
2019-01-23T02:32:07.803Z,46.47
2019-01-23T02:34:38.058Z,55.17
2019-01-23T02:37:08.360Z,51.83
2019-01-23T02:39:38.622Z,46.95
2019-01-23T02:42:08.888Z,50.43
2019-01-23T02:44:39.188Z,54.20
2019-01-23T02:47:09.445Z,52.10
2019-01-23T02:49:39.688Z,54.40
2019-01-23T02:52:09.961Z,51.05
2019-01-23T02:54:40.222Z,49.60
2019-01-23T02:59:45.677Z,46.20
2019-01-23T03:02:15.930Z,47.20
2019-01-23T03:04:46.175Z,48.40
2019-01-23T03:07:16.449Z,49.45
2019-01-23T03:09:46.727Z,47.73
2019-01-23T03:12:16.996Z,51.45
2019-01-23T03:14:47.253Z,48.85
2019-01-23T03:17:17.531Z,51.00
2019-01-23T03:19:47.915Z,47.75
2019-01-23T03:22:18.153Z,51.50
2019-01-23T03:24:48.424Z,61.08
2019-01-23T03:27:18.699Z,48.75
2019-01-23T03:29:48.945Z,50.28
2019-01-23T03:32:19.275Z,52.80
2019-01-23T03:34:49.516Z,45.20
2019-01-23T03:37:19.769Z,50.60
2019-01-23T03:39:50.027Z,46.42
2019-01-23T03:42:20.295Z,54.60
2019-01-23T03:44:50.526Z,45.28
2019-01-23T03:47:20.781Z,47.50
2019-01-23T03:49:51.065Z,47.98
2019-01-23T03:52:21.342Z,47.10
2019-01-23T03:54:51.602Z,46.55
2019-01-23T03:57:21.896Z,47.45
2019-01-23T03:59:52.150Z,46.70
2019-01-23T04:02:22.414Z,43.05
2019-01-23T04:04:52.663Z,56.80
2019-01-23T04:07:23.000Z,45.35
2019-01-23T04:09:53.236Z,49.25
2019-01-23T04:12:23.569Z,40.45
2019-01-23T04:14:53.799Z,55.00
2019-01-23T04:17:24.068Z,46.50
2019-01-23T04:19:54.321Z,44.15
2019-01-23T04:22:24.599Z,49.27
2019-01-23T04:24:54.878Z,45.10
2019-01-23T04:27:25.158Z,42.85
2019-01-23T04:29:55.394Z,44.08
2019-01-23T04:32:25.695Z,47.07
2019-01-23T04:34:55.941Z,44.15
2019-01-23T04:37:26.253Z,46.02
2019-01-23T04:39:56.486Z,43.17
2019-01-23T04:42:26.757Z,40.75
2019-01-23T04:44:57.034Z,45.63
2019-01-23T04:47:27.326Z,47.35
2019-01-23T04:49:57.588Z,48.73
2019-01-23T04:52:45.832Z,44.90
2019-01-23T04:55:16.133Z,47.60
2019-01-23T04:57:46.428Z,46.45
2019-01-23T05:00:19.418Z,47.25
2019-01-23T05:02:50.609Z,51.00
2019-01-23T05:05:21.101Z,42.40
2019-01-23T05:07:51.390Z,41.88
2019-01-23T05:10:21.724Z,44.88
2019-01-23T05:12:52.008Z,40.15
2019-01-23T05:15:22.318Z,45.33
2019-01-23T05:17:52.600Z,41.58
2019-01-23T05:20:22.884Z,40.48
2019-01-23T05:22:53.109Z,41.18
2019-01-23T05:25:23.398Z,43.00
2019-01-23T05:27:53.650Z,41.20
2019-01-23T05:30:24.978Z,40.40
2019-01-23T05:32:55.234Z,39.60
2019-01-23T05:35:25.499Z,38.10
2019-01-23T05:37:56.965Z,40.05
2019-01-23T05:40:27.230Z,41.50
2019-01-23T05:42:57.506Z,51.65
2019-01-23T05:45:27.771Z,51.20
2019-01-23T05:47:58.431Z,46.48
2019-01-23T05:50:28.700Z,51.02
2019-01-23T05:52:58.968Z,35.28
2019-01-23T05:55:29.274Z,47.83
2019-01-23T05:57:59.552Z,38.23
2019-01-23T06:00:29.840Z,45.55
2019-01-23T06:03:00.111Z,43.52
2019-01-23T06:05:30.379Z,43.45
2019-01-23T06:08:00.791Z,39.40
2019-01-23T06:10:31.076Z,39.65
2019-01-23T06:13:01.358Z,44.58
2019-01-23T06:15:31.631Z,43.55
2019-01-23T06:18:01.990Z,52.75
2019-01-23T06:20:32.289Z,47.43
2019-01-23T06:23:02.591Z,46.23
2019-01-23T06:25:32.875Z,49.83
2019-01-23T06:28:03.208Z,48.90
2019-01-23T06:30:33.493Z,51.10
2019-01-23T06:33:22.907Z,42.48
2019-01-23T06:35:53.217Z,43.83
2019-01-23T06:38:23.498Z,45.70
2019-01-23T06:40:53.786Z,45.48
2019-01-23T06:43:24.115Z,45.50
2019-01-23T06:45:54.399Z,49.63
2019-01-23T06:48:24.677Z,45.95
2019-01-23T06:50:54.934Z,46.45
2019-01-23T06:53:25.302Z,51.98
2019-01-23T06:55:55.592Z,54.05
2019-01-23T06:58:25.848Z,58.17
2019-01-23T07:00:56.128Z,56.67
2019-01-23T07:03:26.414Z,59.53
2019-01-23T07:05:56.705Z,62.35
2019-01-23T07:08:27.043Z,62.88
2019-01-23T07:10:57.298Z,77.65
2019-01-23T07:13:28.783Z,65.45
2019-01-23T07:15:59.078Z,68.70
2019-01-23T07:18:29.377Z,71.57
2019-01-23T07:20:59.668Z,69.77
2019-01-23T07:23:29.937Z,66.87
2019-01-23T07:26:00.216Z,68.90
2019-01-23T07:28:30.506Z,82.85
2019-01-23T07:31:00.779Z,87.40
2019-01-23T07:33:31.057Z,84.58
2019-01-23T07:36:01.407Z,83.15
2019-01-23T07:38:31.692Z,76.42
2019-01-23T07:41:02.025Z,78.28
2019-01-23T07:43:32.302Z,77.78
2019-01-23T07:46:02.628Z,79.17
2019-01-23T07:48:32.890Z,77.53
2019-01-23T07:51:03.205Z,77.42
2019-01-23T07:53:33.482Z,69.85
2019-01-23T07:56:03.836Z,79.20
2019-01-23T07:58:34.147Z,70.05
2019-01-23T08:01:04.439Z,81.65
2019-01-23T08:03:34.730Z,81.47
2019-01-23T08:06:05.043Z,80.10
2019-01-23T08:08:35.319Z,75.22
2019-01-23T08:11:05.710Z,80.05
2019-01-23T08:13:36.072Z,71.72
2019-01-23T08:16:06.529Z,77.72
2019-01-23T08:18:36.838Z,71.87
2019-01-23T08:21:07.159Z,72.97
2019-01-23T08:23:37.496Z,73.83
2019-01-23T08:26:07.852Z,75.87
2019-01-23T08:28:38.127Z,72.08
2019-01-23T08:31:08.407Z,70.17
2019-01-23T08:33:38.722Z,78.67
2019-01-23T08:36:09.005Z,71.87
2019-01-23T08:38:39.320Z,84.75
2019-01-23T08:41:09.622Z,99.42
2019-01-23T08:43:39.905Z,101.67
2019-01-23T08:46:10.174Z,92.23
2019-01-23T08:48:40.438Z,81.10
2019-01-23T08:51:10.769Z,73.05
2019-01-23T08:53:41.040Z,80.42
2019-01-23T08:56:11.428Z,74.05
2019-01-23T08:58:41.769Z,78.37
2019-01-23T09:01:15.261Z,78.37
2019-01-23T09:03:45.552Z,75.30
2019-01-23T09:06:15.859Z,67.95
2019-01-23T09:08:46.248Z,85.42
2019-01-23T09:11:16.528Z,68.47
2019-01-23T09:13:46.853Z,71.53
2019-01-23T09:16:17.152Z,77.30
2019-01-23T09:18:47.426Z,73.07
2019-01-23T09:21:18.349Z,74.07
2019-01-23T09:23:48.697Z,71.02
2019-01-23T09:26:18.961Z,78.85
2019-01-23T09:28:49.260Z,76.60
2019-01-23T09:32:15.539Z,83.83
2019-01-23T09:35:20.832Z,70.28
2019-01-23T09:38:06.876Z,71.12
2019-01-23T09:41:24.626Z,70.03
2019-01-23T09:44:30.799Z,80.28
2019-01-23T09:47:32.330Z,75.27
2019-01-23T09:50:39.525Z,80.07
2019-01-23T09:53:29.717Z,80.90
2019-01-23T09:56:00.047Z,75.83
2019-01-23T09:58:30.388Z,82.35
2019-01-23T10:01:00.802Z,95.53
2019-01-23T10:03:31.090Z,75.05
2019-01-23T10:06:01.467Z,75.03
2019-01-23T10:08:31.746Z,89.30
2019-01-23T10:11:02.039Z,82.70
2019-01-23T10:13:32.322Z,76.77
2019-01-23T10:16:09.495Z,77.57
2019-01-23T10:18:39.939Z,79.60
2019-01-23T10:21:10.246Z,80.10
2019-01-23T10:23:40.563Z,87.75
2019-01-23T10:26:10.846Z,73.60
2019-01-23T10:28:41.160Z,81.57
2019-01-23T10:31:11.457Z,73.30
2019-01-23T10:33:41.881Z,78.80
2019-01-23T10:36:12.186Z,69.00
2019-01-23T10:38:42.504Z,73.95
2019-01-23T10:41:12.795Z,73.52
2019-01-23T10:43:43.085Z,74.65
2019-01-23T10:46:13.383Z,85.47
2019-01-23T10:48:43.664Z,80.30
2019-01-23T10:51:13.967Z,82.35
2019-01-23T10:53:44.594Z,76.37
2019-01-23T10:56:14.927Z,76.95
2019-01-23T10:58:45.307Z,75.00
2019-01-23T11:01:15.735Z,74.97
2019-01-23T11:03:46.760Z,65.00
2019-01-23T11:06:17.126Z,71.65
2019-01-23T11:08:48.163Z,73.20
2019-01-23T11:11:18.431Z,73.62
2019-01-23T11:13:48.682Z,70.25
2019-01-23T11:16:19.017Z,73.80
2019-01-23T11:18:49.312Z,65.08
2019-01-23T11:21:19.688Z,81.17
2019-01-23T11:23:49.963Z,71.60
2019-01-23T11:26:20.248Z,67.27
2019-01-23T11:28:50.789Z,59.73
2019-01-23T11:31:21.115Z,61.47
2019-01-23T11:33:51.403Z,71.85
2019-01-23T11:36:21.687Z,67.05
2019-01-23T11:38:52.628Z,67.03
2019-01-23T11:41:22.997Z,67.82
2019-01-23T11:43:53.320Z,71.77
2019-01-23T11:46:23.627Z,76.03
2019-01-23T11:48:53.885Z,72.20
2019-01-23T11:51:24.560Z,73.92
2019-01-23T11:53:56.966Z,70.78
2019-01-23T11:56:27.881Z,72.53
2019-01-23T11:58:58.244Z,69.27
2019-01-23T12:01:28.552Z,67.30
2019-01-23T12:03:58.778Z,79.85
2019-01-23T12:06:29.063Z,72.22
2019-01-23T12:08:59.338Z,64.40
2019-01-23T12:11:29.656Z,67.65
2019-01-23T12:13:59.983Z,71.15
2019-01-23T12:16:30.262Z,73.47
2019-01-23T12:19:00.530Z,68.65
2019-01-23T12:21:30.856Z,78.17
2019-01-23T12:24:01.161Z,73.35
2019-01-23T12:26:31.527Z,62.65
2019-01-23T12:29:01.763Z,69.77
2019-01-23T12:31:35.178Z,55.03
2019-01-23T12:34:04.189Z,76.67
2019-01-23T12:36:34.451Z,72.95
2019-01-23T12:39:06.966Z,62.30
2019-01-23T12:41:37.259Z,61.60
2019-01-23T12:44:07.793Z,60.80
2019-01-23T12:46:38.081Z,64.37
2019-01-23T12:49:08.332Z,65.85
2019-01-23T12:51:38.626Z,67.10
2019-01-23T12:54:10.333Z,76.67
2019-01-23T12:56:40.626Z,69.17
2019-01-23T12:59:10.959Z,69.92
2019-01-23T13:01:42.212Z,61.77
2019-01-23T13:04:12.695Z,62.05
2019-01-23T13:06:43.280Z,61.00
2019-01-23T13:09:13.651Z,66.62
2019-01-23T13:11:43.966Z,55.92
2019-01-23T13:14:14.264Z,62.10
2019-01-23T13:16:44.607Z,61.60
2019-01-23T13:19:14.910Z,53.02
2019-01-23T13:21:45.230Z,54.13
2019-01-23T13:24:15.500Z,54.13
2019-01-23T13:26:45.844Z,62.25
2019-01-23T13:29:16.104Z,53.73
2019-01-23T13:31:49.188Z,51.95
2019-01-23T13:34:18.407Z,47.85
2019-01-23T13:36:48.721Z,52.60
2019-01-23T13:39:20.100Z,45.73
2019-01-23T13:41:50.502Z,54.53
2019-01-23T13:44:20.791Z,52.85
2019-01-23T13:46:51.095Z,53.60
2019-01-23T13:49:21.481Z,50.12
2019-01-23T13:51:51.816Z,61.58
2019-01-23T13:54:22.103Z,45.67
2019-01-23T13:56:52.402Z,63.98
2019-01-23T13:59:22.691Z,59.80
2019-01-23T14:01:56.416Z,50.10
2019-01-23T14:04:25.058Z,54.85
2019-01-23T14:06:55.356Z,55.65
2019-01-23T14:09:25.701Z,57.10
2019-01-23T14:11:55.974Z,61.48
2019-01-23T14:14:26.325Z,52.75
2019-01-23T14:16:56.672Z,49.53
2019-01-23T14:19:26.921Z,52.17
2019-01-23T14:21:57.363Z,52.38
2019-01-23T14:24:27.657Z,47.43
2019-01-23T14:26:57.990Z,52.67
2019-01-23T14:29:28.454Z,63.23
2019-01-23T14:32:03.393Z,47.30
2019-01-23T14:34:31.495Z,56.63
2019-01-23T14:37:01.824Z,50.12
2019-01-23T14:39:32.095Z,54.55
2019-01-23T14:42:02.430Z,53.92
2019-01-23T14:44:32.736Z,54.20
2019-01-23T14:47:03.042Z,57.90
2019-01-23T14:49:33.343Z,59.27
2019-01-23T14:52:05.118Z,59.15
2019-01-23T14:54:35.425Z,43.92
2019-01-23T14:57:05.980Z,45.95
2019-01-23T14:59:36.292Z,48.02
2019-01-23T15:02:10.393Z,53.03
2019-01-23T15:04:38.615Z,45.25
2019-01-23T15:07:08.934Z,55.80
2019-01-23T15:09:39.229Z,49.18
2019-01-23T15:12:09.541Z,52.50
2019-01-23T15:14:39.846Z,40.45
2019-01-23T15:17:10.166Z,52.67
2019-01-23T15:19:40.455Z,52.50
2019-01-23T15:22:10.774Z,47.30
2019-01-23T15:24:41.139Z,48.58
2019-01-23T15:27:11.398Z,48.58
2019-01-23T15:29:41.758Z,77.22
2019-01-23T15:32:17.256Z,66.93
2019-01-23T15:34:44.136Z,58.65
2019-01-23T15:37:14.454Z,43.85
2019-01-23T15:39:44.762Z,43.70
2019-01-23T15:42:15.513Z,50.45
2019-01-23T15:44:46.366Z,42.03
2019-01-23T15:47:17.162Z,48.77
2019-01-23T15:49:48.002Z,47.17
2019-01-23T15:52:18.253Z,38.08
2019-01-23T15:54:49.303Z,46.18
2019-01-23T15:57:20.274Z,49.53
2019-01-23T15:59:52.551Z,45.20
2019-01-23T16:02:24.457Z,42.13
2019-01-23T16:04:54.825Z,40.03
2019-01-23T16:07:25.076Z,42.90
2019-01-23T16:09:55.397Z,42.40
2019-01-23T16:12:25.673Z,49.23
2019-01-23T16:14:55.972Z,42.40
2019-01-23T16:17:26.507Z,44.87
2019-01-23T16:19:56.873Z,42.60
2019-01-23T16:22:27.177Z,36.60
2019-01-23T16:24:57.563Z,46.40
2019-01-23T16:27:28.187Z,41.63
2019-01-23T16:30:17.464Z,47.05
2019-01-23T16:32:47.733Z,41.18
2019-01-23T16:35:17.994Z,39.40
2019-01-23T16:37:48.447Z,41.53
2019-01-23T16:40:18.789Z,43.68
2019-01-23T16:42:49.703Z,42.95
2019-01-23T16:45:20.999Z,46.02
2019-01-23T16:47:51.763Z,44.90
2019-01-23T16:50:23.086Z,39.80
2019-01-23T16:52:54.041Z,39.63
2019-01-23T16:55:24.524Z,42.05
2019-01-23T16:57:55.492Z,36.42
2019-01-23T17:00:26.775Z,44.55
2019-01-23T17:05:29.333Z,40.03
2019-01-23T17:08:01.302Z,38.60
2019-01-23T17:10:31.682Z,35.70
2019-01-23T17:13:01.978Z,42.20
2019-01-23T17:15:32.317Z,38.10
2019-01-23T17:18:02.691Z,40.10
2019-01-23T17:20:39.002Z,43.52
2019-01-23T17:23:09.322Z,47.48
2019-01-23T17:25:39.634Z,36.17
2019-01-23T17:28:11.369Z,39.85
2019-01-23T17:30:41.702Z,45.30
2019-01-23T17:33:12.366Z,40.28
2019-01-23T17:35:42.773Z,43.25
2019-01-23T17:38:13.082Z,42.73
2019-01-23T17:40:43.420Z,48.10
2019-01-23T17:43:14.773Z,43.60
2019-01-23T17:45:45.121Z,45.57
2019-01-23T17:48:16.134Z,40.98
2019-01-23T17:50:46.547Z,49.27
2019-01-23T17:53:16.859Z,43.83
2019-01-23T17:55:47.154Z,46.02
2019-01-23T17:58:17.463Z,43.58
2019-01-23T18:00:54.990Z,42.47
2019-01-23T18:03:25.337Z,53.78
2019-01-23T18:05:55.716Z,50.58
2019-01-23T18:08:26.071Z,41.08
2019-01-23T18:10:56.516Z,40.95
2019-01-23T18:13:26.859Z,51.45
2019-01-23T18:16:05.741Z,49.07
2019-01-23T18:18:36.052Z,52.45
2019-01-23T18:21:06.520Z,46.85
2019-01-23T18:23:36.835Z,48.20
2019-01-23T18:26:07.241Z,41.48
2019-01-23T18:28:37.552Z,49.18
2019-01-23T18:31:35.791Z,43.93
2019-01-23T18:34:33.997Z,50.33
2019-01-23T18:37:21.055Z,43.35
2019-01-23T18:40:24.857Z,42.38
2019-01-23T18:43:21.535Z,50.73
2019-01-23T18:46:05.587Z,46.17
2019-01-23T18:48:57.695Z,54.30
2019-01-23T18:51:46.302Z,47.90
2019-01-23T18:54:16.682Z,46.20
2019-01-23T18:56:46.976Z,46.88
2019-01-23T18:59:17.359Z,58.87
2019-01-23T19:01:47.665Z,48.83
2019-01-23T19:04:18.038Z,51.98
2019-01-23T19:06:48.315Z,51.50
2019-01-23T19:09:18.671Z,51.65
2019-01-23T19:11:48.966Z,50.73
2019-01-23T19:14:24.446Z,52.08
2019-01-23T19:16:51.247Z,51.57
2019-01-23T19:19:21.593Z,49.85
2019-01-23T19:21:55.153Z,49.70
2019-01-23T19:24:23.869Z,53.15
2019-01-23T19:26:54.244Z,53.48
2019-01-23T19:29:24.534Z,54.88
2019-01-23T19:31:55.547Z,57.30
2019-01-23T19:34:26.036Z,55.67
2019-01-23T19:36:57.824Z,46.48
2019-01-23T19:39:28.143Z,48.68
2019-01-23T19:41:58.469Z,59.25
2019-01-23T19:44:28.828Z,51.02
2019-01-23T19:46:59.137Z,53.33
2019-01-23T19:49:29.483Z,54.10
2019-01-23T19:51:59.779Z,62.58
2019-01-23T19:54:30.132Z,58.25
2019-01-23T19:57:00.492Z,47.58
2019-01-23T19:59:30.805Z,67.85
2019-01-23T20:02:01.140Z,56.10
2019-01-23T20:04:31.495Z,58.20
2019-01-23T20:07:01.833Z,55.67
2019-01-23T20:09:32.235Z,57.05
2019-01-23T20:12:02.602Z,58.17
2019-01-23T20:14:32.965Z,57.88
2019-01-23T20:17:03.341Z,57.70
2019-01-23T20:19:34.378Z,57.58
2019-01-23T20:22:04.815Z,58.33
2019-01-23T20:24:35.175Z,61.92
2019-01-23T20:27:06.372Z,64.15
2019-01-23T20:29:36.739Z,54.08
2019-01-23T20:32:07.276Z,59.00
2019-01-23T20:34:37.598Z,62.98
2019-01-23T20:37:07.953Z,60.88
2019-01-23T20:39:38.284Z,62.27
2019-01-23T20:42:08.690Z,61.40
2019-01-23T20:44:39.045Z,55.95
2019-01-23T20:47:09.348Z,57.73
2019-01-23T20:49:39.725Z,65.80
2019-01-23T20:52:10.272Z,56.58
2019-01-23T20:54:40.618Z,62.67
2019-01-23T20:57:10.937Z,59.23
2019-01-23T20:59:41.283Z,56.30
2019-01-23T21:02:11.600Z,58.65
2019-01-23T21:04:41.905Z,54.58
2019-01-23T21:07:12.257Z,59.33
2019-01-23T21:09:42.586Z,55.30
2019-01-23T21:12:18.621Z,55.28
2019-01-23T21:14:44.966Z,56.70
2019-01-23T21:17:15.314Z,54.83
2019-01-23T21:19:45.601Z,50.55
2019-01-23T21:22:15.906Z,65.08
2019-01-23T21:24:46.234Z,58.63
2019-01-23T21:27:16.652Z,47.83
2019-01-23T21:29:46.904Z,59.80
2019-01-23T21:32:17.237Z,64.10
2019-01-23T21:34:47.566Z,58.28
2019-01-23T21:37:17.888Z,57.75
2019-01-23T21:39:48.231Z,55.80
2019-01-23T21:42:18.534Z,56.35
2019-01-23T21:44:48.919Z,55.90
2019-01-23T21:47:19.208Z,55.67
2019-01-23T21:49:49.541Z,58.28
2019-01-23T21:52:19.919Z,55.63
2019-01-23T21:54:51.356Z,56.28
2019-01-23T21:57:21.717Z,53.05
2019-01-23T21:59:52.086Z,70.20
2019-01-23T22:02:23.029Z,73.83
2019-01-23T22:04:53.401Z,62.17
2019-01-23T22:07:23.743Z,62.80
2019-01-23T22:09:54.024Z,56.68
2019-01-23T22:12:24.268Z,56.37
2019-01-23T22:14:54.628Z,45.85
2019-01-23T22:17:24.945Z,59.03
2019-01-23T22:19:55.267Z,55.58
2019-01-23T22:22:25.536Z,57.53
2019-01-23T22:24:55.862Z,55.58
2019-01-23T22:27:26.125Z,61.73
2019-01-23T22:29:56.436Z,60.20
2019-01-23T22:32:26.703Z,57.97
2019-01-23T22:34:56.965Z,49.13
2019-01-23T22:37:27.220Z,55.63
2019-01-23T22:39:57.505Z,52.25
2019-01-23T22:42:27.763Z,62.05
2019-01-23T22:44:58.306Z,57.43
2019-01-23T22:47:28.576Z,52.53
2019-01-23T22:49:58.834Z,56.75
2019-01-23T22:52:30.747Z,63.60
2019-01-23T22:55:01.024Z,57.62
2019-01-23T22:57:31.350Z,51.28
2019-01-23T23:00:01.612Z,63.05
2019-01-23T23:02:31.892Z,53.40
2019-01-23T23:05:02.236Z,57.08
2019-01-23T23:07:32.504Z,63.35
2019-01-23T23:10:02.805Z,56.00
2019-01-23T23:12:33.062Z,49.58
2019-01-23T23:15:03.355Z,54.80
2019-01-23T23:17:33.642Z,58.60
2019-01-23T23:20:04.409Z,45.75
2019-01-23T23:22:34.690Z,60.40
2019-01-23T23:25:05.400Z,60.58
2019-01-23T23:27:39.342Z,63.73
2019-01-23T23:30:10.643Z,57.10
2019-01-23T23:32:40.973Z,52.80
2019-01-23T23:35:11.246Z,57.17
2019-01-23T23:37:41.542Z,55.55
2019-01-23T23:40:12.200Z,46.88
2019-01-23T23:42:42.478Z,54.27
2019-01-23T23:45:13.748Z,52.65
2019-01-23T23:47:44.030Z,59.20
2019-01-23T23:50:14.504Z,55.00
2019-01-23T23:52:44.940Z,51.88
2019-01-23T23:55:15.910Z,48.10
2019-01-23T23:57:46.232Z,55.17
